Time;durP1;ratioP1;P1;durP2;ratioP2;P2;SDS_P1;SDS_P2;PMS_P1;PMS_P2;Temp;Humidity;BMP_temperature;BMP_pressure;BME280_temperature;BME280_humidity;BME280_pressure;Samples;Min_cycle;Max_cycle;Signal;HPM_P1;HPM_P2
2022/12/18 00:02:01;;;;;;;105.23;32.70;;;;;;;0.91;100.00;102671.22;5078852;28;20029;-49
2022/12/18 00:04:27;;;;;;;118.35;34.05;;;;;;;0.59;100.00;102679.97;5077859;28;20461;-52
2022/12/18 00:06:53;;;;;;;107.72;30.73;;;;;;;1.32;100.00;102677.69;5082410;28;20051;-51
2022/12/18 00:09:19;;;;;;;101.35;30.83;;;;;;;1.21;100.00;102673.91;5082308;28;20028;-49
2022/12/18 00:11:45;;;;;;;118.75;32.20;;;;;;;1.05;100.00;102680.97;5071912;28;20117;-50
2022/12/18 00:14:12;;;;;;;94.73;27.10;;;;;;;0.79;100.00;102683.28;5074733;28;20029;-52
2022/12/18 00:16:38;;;;;;;98.25;28.83;;;;;;;0.27;100.00;102674.69;5078978;28;20067;-49
2022/12/18 00:19:04;;;;;;;97.97;29.15;;;;;;;0.34;100.00;102662.88;5081642;28;20032;-52
2022/12/18 00:21:33;;;;;;;89.93;28.27;;;;;;;0.30;100.00;102658.72;5083273;28;20111;-48
2022/12/18 00:23:59;;;;;;;94.10;29.50;;;;;;;0.05;100.00;102653.91;5075577;28;20124;-49
2022/12/18 00:26:30;;;;;;;89.20;28.98;;;;;;;0.09;100.00;102644.91;5076564;28;20039;-51
2022/12/18 00:29:01;;;;;;;101.45;30.10;;;;;;;-0.05;100.00;102635.13;5075504;28;20041;-51
2022/12/18 00:31:26;;;;;;;105.47;31.13;;;;;;;-0.01;100.00;102648.03;5075363;28;20120;-51
2022/12/18 00:33:55;;;;;;;64.72;22.02;;;;;;;-0.37;100.00;102635.88;5077015;28;20024;-50
2022/12/18 00:36:29;;;;;;;100.07;27.63;;;;;;;-0.20;100.00;102640.28;5077381;28;20029;-50
2022/12/18 00:38:56;;;;;;;79.38;28.20;;;;;;;-0.24;100.00;102641.34;5082055;28;20028;-50
2022/12/18 00:44:09;;;;;;;95.72;28.98;;;;;;;-0.20;100.00;102632.41;5074636;28;20425;-49
2022/12/18 00:46:34;;;;;;;81.78;27.88;;;;;;;-0.15;100.00;102635.63;5076501;28;20096;-49
2022/12/18 00:48:59;;;;;;;87.97;29.97;;;;;;;-0.26;100.00;102645.84;5079597;28;20029;-47
2022/12/18 00:51:26;;;;;;;86.07;28.17;;;;;;;-0.37;100.00;102650.81;5088389;28;20040;-48
2022/12/18 00:53:52;;;;;;;85.20;26.25;;;;;;;-0.29;100.00;102653.88;5082848;28;20044;-47
2022/12/18 00:56:21;;;;;;;87.47;28.13;;;;;;;-0.28;100.00;102665.28;5076214;28;20036;-47
2022/12/18 00:58:46;;;;;;;82.22;27.02;;;;;;;-0.09;100.00;102655.50;5077773;28;20051;-50
2022/12/18 01:01:12;;;;;;;68.07;22.07;;;;;;;-0.16;100.00;102656.72;5075592;28;20096;-53
2022/12/18 01:03:37;;;;;;;66.90;21.30;;;;;;;-0.34;100.00;102648.03;5077630;28;20570;-55
2022/12/18 01:06:11;;;;;;;88.83;28.90;;;;;;;-0.44;100.00;102645.88;5075175;28;20029;-52
2022/12/18 01:08:38;;;;;;;95.32;29.05;;;;;;;0.55;100.00;102644.22;5077089;28;20041;-51
2022/12/18 01:11:12;;;;;;;87.63;30.02;;;;;;;-0.18;100.00;102653.34;5074029;28;20044;-54
2022/12/18 01:13:38;;;;;;;92.25;29.48;;;;;;;-0.56;100.00;102653.53;5081656;28;20043;-49
2022/12/18 01:16:04;;;;;;;101.15;29.48;;;;;;;-0.64;100.00;102664.44;5080320;28;20056;-49
2022/12/18 01:18:30;;;;;;;83.78;30.23;;;;;;;-0.85;100.00;102655.81;5076683;28;20072;-50
2022/12/18 01:20:57;;;;;;;101.65;32.38;;;;;;;-0.89;100.00;102650.72;5076168;28;20036;-51
2022/12/18 01:23:26;;;;;;;101.25;29.45;;;;;;;-0.90;100.00;102650.81;5079427;28;20033;-49
2022/12/18 01:25:52;;;;;;;100.32;32.13;;;;;;;-1.02;100.00;102645.22;5079228;28;20063;-49
2022/12/18 01:28:18;;;;;;;73.28;24.80;;;;;;;-0.95;100.00;102650.16;5075630;28;20033;-52
2022/12/18 01:30:43;;;;;;;88.60;30.17;;;;;;;-0.84;100.00;102653.13;5079504;28;20039;-50
2022/12/18 01:33:09;;;;;;;100.05;29.98;;;;;;;-0.78;100.00;102658.06;5075600;28;20285;-49
2022/12/18 01:35:41;;;;;;;95.93;32.65;;;;;;;-0.84;100.00;102666.25;5069367;28;20032;-50
2022/12/18 01:38:07;;;;;;;97.28;28.80;;;;;;;-0.96;100.00;102651.97;5062905;28;20045;-54
2022/12/18 01:40:32;;;;;;;88.23;29.93;;;;;;;-0.97;100.00;102639.75;5065372;28;20075;-51
2022/12/18 01:42:58;;;;;;;100.90;31.85;;;;;;;-1.27;100.00;102639.44;5070976;28;20507;-49
2022/12/18 01:45:29;;;;;;;99.40;29.80;;;;;;;-1.02;100.00;102644.38;5070689;28;20041;-50
2022/12/18 01:48:05;;;;;;;99.97;33.08;;;;;;;-1.30;100.00;102645.69;5068580;28;20035;-52
2022/12/18 01:50:42;;;;;;;95.37;29.60;;;;;;;-1.31;100.00;102654.47;5074448;28;20101;-52
2022/12/18 01:53:20;;;;;;;100.70;31.90;;;;;;;-1.33;100.00;102662.44;5072335;28;20277;-50
2022/12/18 01:55:49;;;;;;;94.03;31.08;;;;;;;-1.26;100.00;102652.50;5071313;28;20025;-49
2022/12/18 01:58:16;;;;;;;96.97;29.58;;;;;;;-1.52;100.00;102646.69;5069190;28;20053;-53
2022/12/18 02:00:41;;;;;;;98.15;31.13;;;;;;;-1.35;100.00;102652.94;5065193;28;20049;-50
2022/12/18 02:03:07;;;;;;;95.80;28.87;;;;;;;-1.37;100.00;102654.78;5071230;28;20064;-50
2022/12/18 02:05:38;;;;;;;91.07;30.30;;;;;;;-1.10;100.00;102657.88;5066996;28;20056;-52
2022/12/18 02:08:07;;;;;;;95.35;31.17;;;;;;;-1.10;100.00;102659.63;5068176;28;20045;-49
2022/12/18 02:10:42;;;;;;;89.28;30.00;;;;;;;-1.05;100.00;102660.25;5067037;28;20032;-50
2022/12/18 02:13:27;;;;;;;93.20;31.02;;;;;;;-1.01;100.00;102667.94;5067115;28;20071;-53
2022/12/18 02:16:05;;;;;;;91.35;29.35;;;;;;;-0.65;100.00;102662.72;5078339;28;20024;-48
2022/12/18 02:18:38;;;;;;;95.82;29.80;;;;;;;-0.97;100.00;102668.63;5074738;28;20031;-50
2022/12/18 02:21:28;;;;;;;98.15;28.95;;;;;;;-1.12;100.00;102659.72;5074474;28;20049;-49
2022/12/18 02:24:17;;;;;;;94.28;27.45;;;;;;;-1.04;100.00;102657.56;5075265;28;20040;-52
2022/12/18 02:26:49;;;;;;;80.90;28.30;;;;;;;-1.17;100.00;102653.81;5077911;28;20035;-49
2022/12/18 02:29:21;;;;;;;86.22;26.70;;;;;;;-1.08;100.00;102648.16;5076518;28;20040;-51
2022/12/18 02:31:53;;;;;;;79.93;26.30;;;;;;;-1.25;100.00;102656.84;5072615;28;20048;-50
2022/12/18 02:34:23;;;;;;;73.38;26.70;;;;;;;-1.41;100.00;102648.81;5082301;28;20088;-48
2022/12/18 02:36:52;;;;;;;74.50;26.67;;;;;;;-1.62;100.00;102654.13;5078561;28;20039;-48
2022/12/18 02:39:20;;;;;;;77.00;28.85;;;;;;;-1.58;100.00;102641.72;5074235;28;20033;-50
2022/12/18 02:41:57;;;;;;;65.13;24.27;;;;;;;-1.51;100.00;102645.75;5074270;28;20059;-50
2022/12/18 02:44:23;;;;;;;90.43;28.85;;;;;;;-1.43;100.00;102648.03;5076129;28;20063;-52
2022/12/18 02:46:52;;;;;;;76.25;25.67;;;;;;;-1.36;100.00;102640.72;5080385;28;20033;-51
2022/12/18 02:49:36;;;;;;;67.63;25.90;;;;;;;-1.27;100.00;102640.28;5075896;28;20040;-48
2022/12/18 02:52:09;;;;;;;68.47;24.23;;;;;;;-1.23;100.00;102643.63;5078669;28;20106;-50
2022/12/18 02:54:59;;;;;;;72.13;23.75;;;;;;;-1.19;100.00;102639.91;5077119;28;20033;-47
2022/12/18 02:57:42;;;;;;;78.38;25.52;;;;;;;-1.17;100.00;102638.06;5076651;28;20044;-49
2022/12/18 03:00:15;;;;;;;70.93;24.50;;;;;;;-1.23;100.00;102635.75;5075889;28;20041;-50
2022/12/18 03:02:46;;;;;;;64.05;24.05;;;;;;;-1.23;100.00;102635.75;5075067;28;20077;-51
2022/12/18 03:05:18;;;;;;;65.60;24.35;;;;;;;-1.22;100.00;102640.94;5077919;28;20029;-49
2022/12/18 03:07:56;;;;;;;60.47;23.35;;;;;;;-1.10;100.00;102636.00;5073997;28;20040;-52
2022/12/18 03:10:32;;;;;;;65.57;23.15;;;;;;;-1.28;100.00;102635.13;5080873;28;20092;-49
2022/12/18 03:13:23;;;;;;;72.53;24.23;;;;;;;-1.27;100.00;102629.78;5076962;28;20664;-53
2022/12/18 03:15:54;;;;;;;68.57;23.65;;;;;;;-0.98;100.00;102617.03;5089049;28;20017;-48
2022/12/18 03:18:26;;;;;;;67.35;23.58;;;;;;;-1.38;100.00;102611.94;5082022;28;20040;-52
2022/12/18 03:20:56;;;;;;;60.40;22.63;;;;;;;-1.28;100.00;102614.13;5085839;28;20099;-51
2022/12/18 03:23:26;;;;;;;59.38;23.13;;;;;;;-1.55;100.00;102614.50;5078568;28;20029;-48
2022/12/18 03:25:57;;;;;;;63.17;22.42;;;;;;;-1.36;100.00;102612.72;5078709;28;20116;-50
2022/12/18 03:28:27;;;;;;;56.67;21.85;;;;;;;-1.27;100.00;102603.53;5076107;28;20088;-51
2022/12/18 03:31:01;;;;;;;55.58;23.50;;;;;;;-1.23;100.00;102596.38;5082127;28;20048;-49
2022/12/18 03:33:37;;;;;;;59.30;21.70;;;;;;;-1.25;100.00;102591.22;5081581;28;20032;-50
2022/12/18 03:36:03;;;;;;;61.35;21.42;;;;;;;-1.28;100.00;102590.50;5080967;28;20050;-49
2022/12/18 03:38:29;;;;;;;60.58;21.65;;;;;;;-1.30;100.00;102588.78;5076102;28;20024;-50
2022/12/18 03:41:32;;;;;;;42.33;16.43;;;;;;;-1.34;100.00;102589.88;5086911;28;20025;-52
2022/12/18 03:44:33;;;;;;;59.28;22.52;;;;;;;-1.43;100.00;102594.72;5083784;28;20290;-48
2022/12/18 03:47:13;;;;;;;53.58;20.83;;;;;;;-1.34;100.00;102596.88;5075985;28;20047;-50
2022/12/18 03:50:05;;;;;;;46.17;19.10;;;;;;;-1.42;100.00;102599.03;5076933;28;20040;-52
2022/12/18 03:52:37;;;;;;;56.72;19.92;;;;;;;-1.42;100.00;102594.63;5088124;28;20032;-53
2022/12/18 03:55:07;;;;;;;56.17;19.20;;;;;;;-1.39;100.00;102585.75;5083388;28;20058;-50
2022/12/18 03:57:33;;;;;;;49.30;18.80;;;;;;;-1.35;100.00;102580.28;5080827;28;20177;-48
2022/12/18 04:00:08;;;;;;;51.38;19.65;;;;;;;-1.32;100.00;102584.53;5080378;28;20029;-51
2022/12/18 04:02:52;;;;;;;54.10;19.90;;;;;;;-1.33;100.00;102580.19;5083021;28;20033;-48
2022/12/18 04:05:26;;;;;;;45.00;18.98;;;;;;;-1.32;100.00;102579.28;5075625;28;20037;-50
2022/12/18 04:07:54;;;;;;;49.28;19.85;;;;;;;-1.37;100.00;102570.78;5077435;28;20036;-50
2022/12/18 04:10:20;;;;;;;51.97;18.80;;;;;;;-1.34;100.00;102571.50;5077684;28;20025;-53
2022/12/18 04:12:46;;;;;;;40.03;14.77;;;;;;;-0.22;100.00;102573.78;5077370;28;20052;-52
2022/12/18 04:15:13;;;;;;;50.25;18.67;;;;;;;0.08;100.00;102566.91;5080193;28;20104;-53
2022/12/18 04:17:46;;;;;;;40.78;16.38;;;;;;;-0.61;100.00;102562.59;5081987;28;20078;-49
2022/12/18 04:20:12;;;;;;;42.72;17.25;;;;;;;-1.06;100.00;102570.13;5083288;28;20096;-50
2022/12/18 04:22:41;;;;;;;42.40;17.33;;;;;;;-1.47;100.00;102565.13;5078769;28;20051;-53
2022/12/18 04:25:12;;;;;;;37.55;17.15;;;;;;;-1.48;100.00;102558.19;5080939;28;20033;-49
2022/12/18 04:27:44;;;;;;;47.30;18.60;;;;;;;-1.50;100.00;102566.13;5087852;28;20043;-50
2022/12/18 04:30:11;;;;;;;46.05;16.92;;;;;;;-1.57;100.00;102571.75;5074814;28;20045;-49
2022/12/18 04:32:36;;;;;;;30.30;13.27;;;;;;;-1.49;100.00;102559.09;5079520;28;20048;-49
2022/12/18 04:35:04;;;;;;;36.80;13.82;;;;;;;-1.47;100.00;102559.88;5085603;28;20037;-49
2022/12/18 04:37:31;;;;;;;44.35;18.83;;;;;;;-1.59;100.00;102569.19;5075709;28;20021;-50
2022/12/18 04:39:57;;;;;;;35.00;15.02;;;;;;;-1.66;100.00;102576.50;5079528;28;20032;-51
2022/12/18 04:42:30;;;;;;;46.70;17.58;;;;;;;-1.57;100.00;102577.00;5077226;28;20033;-50
2022/12/18 04:44:55;;;;;;;41.50;14.23;;;;;;;-1.24;100.00;102579.78;5074897;28;20056;-50
2022/12/18 04:47:21;;;;;;;40.60;16.20;;;;;;;-0.50;100.00;102583.09;5078796;28;20044;-54
2022/12/18 04:49:46;;;;;;;41.67;16.17;;;;;;;0.26;100.00;102592.22;5078476;28;20040;-52
2022/12/18 04:52:11;;;;;;;47.93;17.30;;;;;;;-0.88;100.00;102588.53;5089708;28;20088;-48
2022/12/18 04:54:37;;;;;;;40.97;15.37;;;;;;;0.37;100.00;102594.28;5083117;28;20116;-48
2022/12/18 04:57:02;;;;;;;43.83;16.95;;;;;;;-0.89;100.00;102592.94;5085904;28;20041;-50
2022/12/18 04:59:28;;;;;;;37.95;16.60;;;;;;;-1.21;100.00;102595.38;5083443;28;20064;-52
2022/12/18 05:01:53;;;;;;;38.90;16.95;;;;;;;-1.35;100.00;102596.03;5078104;28;20040;-53
2022/12/18 05:04:19;;;;;;;38.35;17.30;;;;;;;-1.40;100.00;102603.25;5077567;28;20072;-52
2022/12/18 05:06:44;;;;;;;39.70;15.73;;;;;;;-1.43;100.00;102608.66;5076826;28;20029;-49
2022/12/18 05:09:10;;;;;;;41.13;17.60;;;;;;;-1.61;100.00;102611.25;5079270;28;20293;-52
2022/12/18 05:11:36;;;;;;;44.72;17.05;;;;;;;-1.79;100.00;102619.97;5079151;28;20067;-52
2022/12/18 05:14:02;;;;;;;40.50;16.55;;;;;;;-1.71;100.00;102609.13;5080430;28;20062;-51
2022/12/18 05:16:27;;;;;;;43.83;16.70;;;;;;;-1.75;100.00;102619.75;5081153;28;20113;-47
2022/12/18 05:18:53;;;;;;;36.55;12.95;;;;;;;-1.97;100.00;102614.63;5076916;28;20028;-53
2022/12/18 05:21:19;;;;;;;33.33;13.38;;;;;;;-1.48;100.00;102608.03;5079110;28;20037;-50
2022/12/18 05:23:44;;;;;;;46.13;16.02;;;;;;;-1.37;100.00;102612.78;5076732;28;20039;-50
2022/12/18 05:26:15;;;;;;;38.50;14.67;;;;;;;-1.52;100.00;102617.00;5079403;28;20044;-47
2022/12/18 05:28:40;;;;;;;41.38;15.65;;;;;;;-1.63;100.00;102615.69;5077153;28;20033;-51
2022/12/18 05:31:06;;;;;;;39.60;18.40;;;;;;;-1.36;100.00;102612.72;5071640;28;20049;-48
2022/12/18 05:33:34;;;;;;;38.63;13.45;;;;;;;-1.56;100.00;102613.66;5073947;28;20032;-53
2022/12/18 05:36:06;;;;;;;36.65;15.13;;;;;;;-1.44;100.00;102620.09;5077142;28;20097;-50
2022/12/18 05:38:34;;;;;;;41.13;16.48;;;;;;;-0.95;100.00;102619.50;5079025;28;20037;-54
2022/12/18 05:41:00;;;;;;;32.97;15.68;;;;;;;-1.64;100.00;102611.38;5077329;28;20037;-50
2022/12/18 05:43:26;;;;;;;36.10;12.82;;;;;;;-1.69;100.00;102609.91;5082267;28;20099;-48
2022/12/18 05:45:52;;;;;;;;;;;;;;;-1.60;100.00;102610.34;5076251;28;20083;-52
2022/12/18 05:48:18;;;;;;;39.10;15.57;;;;;;;-1.61;100.00;102606.00;5076051;28;19920;-49
2022/12/18 05:50:45;;;;;;;36.67;14.95;;;;;;;-1.56;100.00;102604.94;5076697;28;20040;-48
2022/12/18 05:53:12;;;;;;;38.58;16.08;;;;;;;-1.51;100.00;102598.53;5080841;28;20040;-52
2022/12/18 05:55:40;;;;;;;37.05;16.35;;;;;;;-1.52;100.00;102588.13;5074990;28;20048;-46
2022/12/18 05:58:08;;;;;;;30.80;15.05;;;;;;;-1.27;100.00;102587.78;5080489;28;20036;-54
2022/12/18 06:00:39;;;;;;;36.30;15.20;;;;;;;-1.43;100.00;102582.41;5083341;28;20029;-51
2022/12/18 06:03:05;;;;;;;39.03;16.35;;;;;;;-1.57;100.00;102580.47;5076030;28;20048;-51
2022/12/18 06:05:35;;;;;;;;;;;;;;;-1.60;100.00;102576.22;5079115;28;20062;-47
2022/12/18 06:08:01;;;;;;;35.78;14.15;;;;;;;-1.62;100.00;102572.78;5077444;28;19999;-52
2022/12/18 06:10:26;;;;;;;32.83;15.35;;;;;;;-1.61;100.00;102571.91;5076379;28;20029;-49
2022/12/18 06:12:52;;;;;;;36.53;14.25;;;;;;;-1.53;100.00;102568.06;5076287;28;20043;-48
2022/12/18 06:15:18;;;;;;;33.90;14.82;;;;;;;-1.59;100.00;102569.19;5079400;28;20032;-48
2022/12/18 06:17:44;;;;;;;24.15;12.50;;;;;;;-1.52;100.00;102569.75;5075012;28;20039;-50
2022/12/18 06:20:09;;;;;;;36.17;15.27;;;;;;;-1.52;100.00;102567.13;5074383;28;20056;-51
2022/12/18 06:22:35;;;;;;;28.85;11.68;;;;;;;-1.41;100.00;102559.56;5079669;28;20147;-50
2022/12/18 06:25:01;;;;;;;32.95;15.20;;;;;;;-1.48;100.00;102559.03;5079617;28;20067;-50
2022/12/18 06:27:27;;;;;;;34.78;13.63;;;;;;;-1.48;100.00;102553.78;5086748;28;20033;-52
2022/12/18 06:29:52;;;;;;;35.88;14.75;;;;;;;-1.40;100.00;102563.91;5076892;28;20047;-50
2022/12/18 06:32:17;;;;;;;37.97;15.10;;;;;;;-1.39;100.00;102562.97;5081319;28;20033;-51
2022/12/18 06:34:43;;;;;;;37.80;14.70;;;;;;;-1.30;100.00;102570.41;5080508;28;20029;-52
2022/12/18 06:37:08;;;;;;;31.02;15.10;;;;;;;-1.39;100.00;102567.38;5079656;28;20056;-50
2022/12/18 06:39:34;;;;;;;30.92;13.68;;;;;;;-1.18;100.00;102568.09;5077846;28;20054;-54
2022/12/18 06:42:00;;;;;;;33.55;14.07;;;;;;;-1.48;100.00;102553.78;5078251;28;20063;-49
2022/12/18 06:44:25;;;;;;;32.53;15.45;;;;;;;-1.60;100.00;102557.84;5083330;28;20066;-48
2022/12/18 06:46:51;;;;;;;30.48;12.00;;;;;;;-1.48;100.00;102552.94;5085080;28;20033;-51
2022/12/18 06:49:16;;;;;;;32.37;14.63;;;;;;;-1.51;100.00;102553.91;5085004;28;20064;-49
2022/12/18 06:51:42;;;;;;;34.30;15.77;;;;;;;-1.63;100.00;102557.13;5082494;28;20029;-48
2022/12/18 06:54:08;;;;;;;32.30;13.30;;;;;;;-1.53;100.00;102536.56;5086553;28;20048;-50
2022/12/18 06:56:33;;;;;;;38.08;16.08;;;;;;;-1.54;100.00;102532.25;5086526;28;20044;-49
2022/12/18 06:58:58;;;;;;;35.33;15.93;;;;;;;-1.55;100.00;102525.28;5082763;28;20044;-49
2022/12/18 07:01:24;;;;;;;27.13;11.90;;;;;;;-1.47;100.00;102521.38;5084545;28;20033;-48
2022/12/18 07:03:54;;;;;;;37.78;15.48;;;;;;;-1.41;100.00;102520.19;5075738;28;20021;-48
2022/12/18 07:06:23;;;;;;;30.50;14.05;;;;;;;-1.35;100.00;102526.94;5082264;28;20036;-47
2022/12/18 07:08:51;;;;;;;47.08;16.67;;;;;;;-1.40;100.00;102519.28;5085512;28;20048;-49
2022/12/18 07:11:18;;;;;;;36.53;15.73;;;;;;;-1.40;100.00;102524.53;5083603;28;20036;-53
2022/12/18 07:13:43;;;;;;;38.40;15.70;;;;;;;-1.46;100.00;102511.72;5077735;28;20040;-51
2022/12/18 07:16:18;;;;;;;35.80;14.40;;;;;;;-1.49;100.00;102509.25;5083579;28;20281;-50
2022/12/18 07:18:44;;;;;;;34.63;14.90;;;;;;;-1.43;100.00;102505.47;5083359;28;20044;-51
2022/12/18 07:21:15;;;;;;;37.72;15.23;;;;;;;-1.62;100.00;102499.31;5086665;28;20028;-50
2022/12/18 07:23:42;;;;;;;34.60;15.25;;;;;;;-1.59;100.00;102499.22;5082001;28;20032;-49
2022/12/18 07:26:10;;;;;;;34.75;15.68;;;;;;;-1.51;100.00;102488.31;5074601;28;20060;-48
2022/12/18 07:28:37;;;;;;;37.28;15.57;;;;;;;-1.39;100.00;102488.66;5076631;28;20053;-52
2022/12/18 07:31:06;;;;;;;;;;;;;;;-1.47;100.00;102491.63;5080407;28;20052;-49
2022/12/18 07:33:34;;;;;;;32.92;15.07;;;;;;;-1.34;100.00;102481.38;5078876;28;19978;-54
2022/12/18 07:36:00;;;;;;;40.15;14.40;;;;;;;-1.50;100.00;102484.78;5077072;28;20047;-54
2022/12/18 07:38:26;;;;;;;36.72;15.73;;;;;;;-1.38;100.00;102488.59;5078160;28;20025;-50
2022/12/18 07:40:51;;;;;;;28.60;12.87;;;;;;;-1.23;100.00;102478.22;5082990;28;20033;-51
2022/12/18 07:43:17;;;;;;;25.15;12.80;;;;;;;-1.42;100.00;102479.13;5078595;28;20278;-48
2022/12/18 07:45:43;;;;;;;37.08;15.82;;;;;;;-1.38;100.00;102466.72;5083543;28;20032;-50
2022/12/18 07:48:09;;;;;;;34.60;14.95;;;;;;;-1.32;100.00;102462.00;5082159;28;20033;-48
2022/12/18 07:50:34;;;;;;;36.67;16.13;;;;;;;-1.26;100.00;102460.00;5085183;28;20040;-54
2022/12/18 07:53:03;;;;;;;39.22;15.93;;;;;;;-1.28;100.00;102460.06;5076973;28;20298;-52
2022/12/18 07:55:30;;;;;;;39.55;15.85;;;;;;;-1.16;100.00;102463.84;5085182;28;20029;-53
2022/12/18 07:57:55;;;;;;;36.10;15.33;;;;;;;-1.01;100.00;102463.06;5080549;28;20092;-51
2022/12/18 08:00:21;;;;;;;29.65;12.95;;;;;;;-1.02;100.00;102461.38;5081966;28;20265;-51
2022/12/18 08:02:47;;;;;;;34.17;14.43;;;;;;;-1.07;100.00;102449.41;5078986;28;20029;-50
2022/12/18 08:05:13;;;;;;;37.33;15.93;;;;;;;-0.74;100.00;102440.69;5076309;28;20040;-53
2022/12/18 08:07:39;;;;;;;31.35;14.90;;;;;;;0.83;100.00;102448.59;5081163;28;20048;-49
2022/12/18 08:10:05;;;;;;;36.40;15.93;;;;;;;0.32;100.00;102456.81;5083912;28;20033;-53
2022/12/18 08:12:31;;;;;;;;;;;;;;;1.76;100.00;102455.25;5085252;28;20096;-48
2022/12/18 08:14:56;;;;;;;29.80;13.50;;;;;;;0.03;100.00;102451.44;5079857;28;19913;-49
2022/12/18 08:17:22;;;;;;;22.93;10.57;;;;;;;0.96;100.00;102453.97;5080880;28;20037;-52
2022/12/18 08:19:47;;;;;;;36.33;14.93;;;;;;;0.64;100.00;102448.00;5079745;28;20029;-51
2022/12/18 08:22:13;;;;;;;32.90;15.20;;;;;;;0.81;100.00;102455.75;5079231;28;20045;-52
2022/12/18 08:24:38;;;;;;;29.75;13.80;;;;;;;1.34;100.00;102460.50;5089252;28;20052;-49
2022/12/18 08:27:04;;;;;;;30.27;13.00;;;;;;;1.27;100.00;102485.53;5087399;28;20037;-53
2022/12/18 08:29:30;;;;;;;33.43;14.57;;;;;;;0.88;100.00;102477.28;5085158;28;20025;-51
2022/12/18 08:31:56;;;;;;;34.95;14.30;;;;;;;1.00;100.00;102476.56;5077408;28;20053;-50
2022/12/18 08:34:21;;;;;;;30.92;13.38;;;;;;;1.35;100.00;102474.50;5080162;28;20036;-49
2022/12/18 08:36:47;;;;;;;32.38;14.48;;;;;;;1.29;100.00;102473.13;5078330;28;20045;-50
2022/12/18 08:39:12;;;;;;;31.80;13.65;;;;;;;0.99;100.00;102477.50;5084837;28;20036;-53
2022/12/18 08:41:38;;;;;;;30.83;12.87;;;;;;;0.75;100.00;102471.06;5087130;28;20040;-48
2022/12/18 08:46:48;;;;;;;35.88;15.35;;;;;;;1.18;100.00;102472.91;5079868;28;20052;-48
2022/12/18 08:49:14;;;;;;;35.27;14.17;;;;;;;0.93;100.00;102471.75;5079605;28;20088;-52
2022/12/18 08:51:40;;;;;;;29.52;14.30;;;;;;;1.51;100.00;102453.34;5075115;28;20280;-51
2022/12/18 08:54:06;;;;;;;30.65;14.38;;;;;;;0.39;100.00;102455.53;5083584;28;20045;-52
2022/12/18 08:56:32;;;;;;;30.50;14.65;;;;;;;-0.06;100.00;102449.31;5075334;28;20030;-50
2022/12/18 08:58:58;;;;;;;25.35;12.45;;;;;;;-0.08;100.00;102454.66;5072150;28;20044;-48
2022/12/18 09:01:24;;;;;;;36.28;14.30;;;;;;;-0.20;100.00;102452.69;5075044;28;20059;-47
2022/12/18 09:03:50;;;;;;;33.10;14.32;;;;;;;1.23;100.00;102458.50;5074555;28;20043;-50
2022/12/18 09:06:18;;;;;;;39.20;15.45;;;;;;;0.99;100.00;102464.34;5074281;28;20031;-49
2022/12/18 09:08:44;;;;;;;30.55;14.10;;;;;;;2.25;100.00;102453.03;5079676;28;20043;-49
2022/12/18 09:11:22;;;;;;;33.97;14.40;;;;;;;1.91;100.00;102456.06;5072322;28;20045;-50
2022/12/18 09:13:47;;;;;;;31.83;12.82;;;;;;;1.26;100.00;102471.50;5073319;28;20036;-54
2022/12/18 09:16:14;;;;;;;33.85;12.80;;;;;;;0.36;100.00;102465.41;5076290;28;20037;-52
2022/12/18 09:18:39;;;;;;;40.97;15.53;;;;;;;0.31;100.00;102478.81;5076349;28;20033;-49
2022/12/18 09:21:13;;;;;;;30.23;13.80;;;;;;;0.51;100.00;102484.72;5074798;28;20048;-55
2022/12/18 09:23:38;;;;;;;33.33;14.57;;;;;;;1.90;100.00;102487.84;5079049;28;20045;-49
2022/12/18 09:26:04;;;;;;;33.08;13.10;;;;;;;2.32;100.00;102483.38;5077118;28;20033;-51
2022/12/18 09:28:29;;;;;;;32.95;12.48;;;;;;;2.39;100.00;102465.31;5075889;28;20032;-54
2022/12/18 09:30:55;;;;;;;25.92;12.20;;;;;;;2.20;100.00;102470.97;5079877;28;20036;-49
2022/12/18 09:33:21;;;;;;;28.63;13.27;;;;;;;2.43;100.00;102467.66;5074899;28;20036;-50
2022/12/18 09:35:46;;;;;;;24.90;11.80;;;;;;;2.04;100.00;102452.66;5076645;28;20037;-53
2022/12/18 09:38:17;;;;;;;26.17;12.37;;;;;;;2.48;100.00;102462.09;5082472;28;20074;-49
2022/12/18 09:40:56;;;;;;;26.83;13.75;;;;;;;3.09;100.00;102455.41;5076588;28;20037;-52
2022/12/18 09:43:28;;;;;;;32.65;13.05;;;;;;;2.65;100.00;102462.75;5076642;28;20478;-51
2022/12/18 09:46:07;;;;;;;26.63;12.13;;;;;;;3.20;100.00;102454.66;5077103;28;20033;-56
2022/12/18 09:48:40;;;;;;;27.33;12.55;;;;;;;3.87;100.00;102437.56;5076780;28;20045;-48
2022/12/18 09:51:18;;;;;;;28.40;12.60;;;;;;;3.81;100.00;102425.63;5079482;28;20036;-51
2022/12/18 09:54:16;;;;;;;31.48;13.50;;;;;;;3.15;100.00;102420.59;5073255;28;20055;-55
2022/12/18 09:56:43;;;;;;;28.67;13.05;;;;;;;3.10;100.00;102422.72;5070551;28;20037;-50
2022/12/18 09:59:23;;;;;;;30.92;12.95;;;;;;;3.04;100.00;102423.97;5078772;28;20037;-49
2022/12/18 10:01:49;;;;;;;28.73;12.85;;;;;;;3.39;100.00;102418.03;5072242;28;20029;-54
2022/12/18 10:04:14;;;;;;;24.33;10.85;;;;;;;3.59;100.00;102411.31;5076290;28;20037;-51
2022/12/18 10:06:50;;;;;;;22.63;10.33;;;;;;;3.28;100.00;102421.44;5072445;28;20036;-49
2022/12/18 10:09:19;;;;;;;26.15;12.15;;;;;;;3.46;100.00;102421.09;5075389;28;20281;-52
2022/12/18 10:11:57;;;;;;;30.63;11.90;;;;;;;4.19;100.00;102426.41;5072264;28;20037;-50
2022/12/18 10:14:27;;;;;;;25.45;11.85;;;;;;;4.26;100.00;102416.22;5072343;28;20036;-50
2022/12/18 10:17:16;;;;;;;30.45;12.52;;;;;;;4.13;100.00;102429.53;5078106;28;20025;-53
2022/12/18 10:19:57;;;;;;;28.13;13.00;;;;;;;3.64;100.00;102441.88;5076120;28;20025;-52
2022/12/18 10:22:54;;;;;;;29.98;12.30;;;;;;;3.93;100.00;102445.06;5073171;28;20088;-50
2022/12/18 10:25:37;;;;;;;28.38;12.35;;;;;;;4.62;100.00;102440.03;5071663;28;20037;-55
2022/12/18 10:28:12;;;;;;;27.25;11.55;;;;;;;3.92;100.00;102418.69;5070486;28;20028;-52
2022/12/18 10:30:39;;;;;;;27.10;11.63;;;;;;;3.94;100.00;102417.63;5068324;28;20036;-52
2022/12/18 10:33:04;;;;;;;;;;;;;;;3.57;100.00;102426.44;5074056;28;20041;-53
2022/12/18 10:35:30;;;;;;;27.47;11.30;;;;;;;3.61;100.00;102419.13;5073375;28;19936;-52
2022/12/18 10:38:24;;;;;;;26.40;11.77;;;;;;;3.95;100.00;102402.59;5071372;28;20044;-54
2022/12/18 10:40:51;;;;;;;25.58;11.73;;;;;;;3.36;100.00;102389.16;5073874;28;20044;-49
2022/12/18 10:43:40;;;;;;;29.65;11.48;;;;;;;3.80;100.00;102384.25;5078584;28;20118;-54
2022/12/18 10:46:08;;;;;;;26.67;12.32;;;;;;;3.87;100.00;102372.22;5074430;28;20020;-54
2022/12/18 10:48:40;;;;;;;30.58;12.68;;;;;;;3.69;100.00;102371.78;5073647;28;20028;-52
2022/12/18 10:51:07;;;;;;;22.90;11.10;;;;;;;3.82;100.00;102382.31;5070355;28;20045;-50
2022/12/18 10:53:35;;;;;;;26.85;10.85;;;;;;;4.15;100.00;102378.16;5075221;28;20040;-53
2022/12/18 10:56:04;;;;;;;24.08;11.02;;;;;;;4.34;100.00;102371.44;5065215;28;20029;-49
2022/12/18 10:58:35;;;;;;;27.55;12.32;;;;;;;4.30;100.00;102365.53;5071342;28;20028;-52
2022/12/18 11:01:12;;;;;;;23.80;11.18;;;;;;;3.84;100.00;102366.34;5070099;28;20100;-51
2022/12/18 11:03:44;;;;;;;25.38;11.57;;;;;;;3.82;100.00;102377.03;5068734;28;20101;-52
2022/12/18 11:06:15;;;;;;;28.08;11.88;;;;;;;4.12;100.00;102361.63;5072350;28;20096;-50
2022/12/18 11:08:46;;;;;;;26.38;10.85;;;;;;;4.56;100.00;102360.06;5069690;28;20052;-52
2022/12/18 11:11:23;;;;;;;30.45;11.95;;;;;;;4.23;100.00;102360.81;5072351;28;20029;-48
2022/12/18 11:14:02;;;;;;;28.23;11.57;;;;;;;4.18;100.00;102352.41;5074159;28;20025;-52
2022/12/18 11:16:30;;;;;;;28.70;12.07;;;;;;;4.66;100.00;102344.28;5071868;28;20528;-54
2022/12/18 11:19:21;;;;;;;27.05;11.93;;;;;;;5.03;100.00;102351.16;5079892;28;20025;-53
2022/12/18 11:21:47;;;;;;;21.30;10.88;;;;;;;4.51;100.00;102345.47;5066033;28;20040;-46